createdAt,value
2018-04-07T00:02:09.262Z,51.70
2018-04-07T00:04:40.883Z,51.80
2018-04-07T00:07:10.306Z,52.00
2018-04-07T00:09:40.417Z,52.30
2018-04-07T00:12:09.804Z,52.60
2018-04-07T00:14:39.312Z,52.40
2018-04-07T00:17:09.359Z,52.60
2018-04-07T00:19:38.760Z,52.50
2018-04-07T00:22:08.084Z,52.50
2018-04-07T00:24:39.483Z,52.60
2018-04-07T00:27:14.611Z,52.60
2018-04-07T00:29:45.049Z,53.10
2018-04-07T00:32:15.536Z,53.10
2018-04-07T00:34:55.374Z,53.20
2018-04-07T00:37:28.987Z,53.40
2018-04-07T00:40:02.380Z,53.50
2018-04-07T00:42:37.052Z,53.70
2018-04-07T00:45:08.617Z,53.80
2018-04-07T00:47:39.805Z,54.00
2018-04-07T00:50:09.546Z,54.00
2018-04-07T00:52:50.200Z,54.10
2018-04-07T00:55:23.022Z,54.40
2018-04-07T00:58:09.253Z,54.40
2018-04-07T01:00:49.739Z,54.70
2018-04-07T01:03:19.128Z,54.60
2018-04-07T01:05:53.596Z,54.60
2018-04-07T01:08:32.792Z,54.50
2018-04-07T01:11:06.905Z,54.70
2018-04-07T01:16:19.618Z,55.20
2018-04-07T01:18:51.367Z,55.80
2018-04-07T01:21:21.741Z,55.80
2018-04-07T01:24:03.033Z,56.10
2018-04-07T01:26:35.371Z,55.90
2018-04-07T01:29:13.173Z,55.80
2018-04-07T01:31:44.120Z,56.00
2018-04-07T01:34:14.585Z,56.00
2018-04-07T01:36:44.034Z,56.30
2018-04-07T01:39:25.783Z,56.40
2018-04-07T01:42:02.343Z,56.40
2018-04-07T01:44:43.402Z,56.60
2018-04-07T01:47:14.392Z,57.30
2018-04-07T01:49:53.969Z,56.70
2018-04-07T01:52:23.659Z,57.00
2018-04-07T01:55:01.213Z,57.10
2018-04-07T01:57:30.561Z,57.00
2018-04-07T01:59:59.846Z,57.10
2018-04-07T02:02:29.267Z,57.40
2018-04-07T02:04:58.889Z,57.30
2018-04-07T02:07:31.291Z,57.50
2018-04-07T02:10:08.359Z,57.40
2018-04-07T02:12:42.424Z,57.50
2018-04-07T02:15:17.616Z,57.50
2018-04-07T02:17:54.516Z,57.80
2018-04-07T02:23:09.682Z,58.10
2018-04-07T02:25:41.967Z,58.00
2018-04-07T02:28:11.769Z,58.00
2018-04-07T02:30:45.881Z,58.30
2018-04-07T02:33:17.976Z,58.30
2018-04-07T02:35:50.359Z,58.30
2018-04-07T02:38:30.605Z,58.40
2018-04-07T02:41:06.779Z,58.20
2018-04-07T02:43:37.154Z,58.20
2018-04-07T02:46:08.607Z,58.40
2018-04-07T02:48:49.272Z,58.90
2018-04-07T02:51:24.243Z,58.90
2018-04-07T02:54:00.153Z,59.10
2018-04-07T02:56:29.535Z,59.10
2018-04-07T02:59:00.404Z,59.40
2018-04-07T03:01:30.133Z,59.60
2018-04-07T03:03:59.380Z,59.50
2018-04-07T03:06:28.740Z,59.60
2018-04-07T03:08:58.122Z,59.70
2018-04-07T03:11:31.610Z,59.30
2018-04-07T03:14:00.910Z,59.30
2018-04-07T03:16:30.002Z,59.50
2018-04-07T03:19:00.904Z,59.80
2018-04-07T03:21:30.156Z,59.80
2018-04-07T03:24:00.516Z,59.80
2018-04-07T03:26:31.306Z,59.80
2018-04-07T03:29:01.059Z,60.30
2018-04-07T03:31:30.055Z,60.30
2018-04-07T03:33:59.095Z,59.90
2018-04-07T03:36:28.194Z,61.10
2018-04-07T03:38:57.188Z,60.50
2018-04-07T03:41:27.006Z,60.80
2018-04-07T03:43:56.095Z,61.00
2018-04-07T03:46:25.209Z,61.20
2018-04-07T03:48:55.199Z,61.80
2018-04-07T03:51:26.732Z,61.70
2018-04-07T03:53:56.612Z,61.60
2018-04-07T03:56:27.346Z,61.80
2018-04-07T03:58:56.741Z,62.00
2018-04-07T04:01:28.318Z,63.50
2018-04-07T04:03:57.787Z,63.60
2018-04-07T04:06:27.818Z,63.90
2018-04-07T04:08:57.859Z,63.80
2018-04-07T04:11:26.884Z,63.90
2018-04-07T04:13:57.686Z,64.10
2018-04-07T04:16:34.339Z,64.10
2018-04-07T04:19:09.113Z,64.10
2018-04-07T04:21:38.236Z,64.20
2018-04-07T04:24:09.230Z,64.70
2018-04-07T04:26:38.542Z,64.40
2018-04-07T04:29:07.740Z,64.50
2018-04-07T04:31:36.733Z,64.70
2018-04-07T04:34:05.657Z,65.10
2018-04-07T04:36:34.706Z,65.50
2018-04-07T04:39:05.923Z,65.60
2018-04-07T04:41:35.301Z,65.60
2018-04-07T04:44:04.241Z,66.20
2018-04-07T04:46:33.396Z,65.50
2018-04-07T04:49:03.365Z,66.30
2018-04-07T04:51:39.965Z,66.10
2018-04-07T04:54:16.421Z,66.30
2018-04-07T04:56:47.795Z,66.10
2018-04-07T04:59:16.950Z,66.10
2018-04-07T05:01:46.136Z,66.00
2018-04-07T05:04:15.306Z,66.10
2018-04-07T05:06:46.478Z,66.80
2018-04-07T05:09:17.894Z,66.60
2018-04-07T05:11:48.054Z,66.80
2018-04-07T05:14:17.275Z,66.80
2018-04-07T05:16:46.637Z,66.70
2018-04-07T05:19:15.903Z,66.70
2018-04-07T05:21:45.987Z,66.90
2018-04-07T05:24:14.979Z,66.90
2018-04-07T05:26:44.164Z,67.00
2018-04-07T05:29:13.391Z,66.90
2018-04-07T05:31:42.716Z,66.90
2018-04-07T05:34:12.791Z,66.80
2018-04-07T05:36:42.118Z,66.80
2018-04-07T05:39:11.387Z,66.60
2018-04-07T05:41:40.440Z,66.40
2018-04-07T05:44:10.343Z,66.40
2018-04-07T05:46:39.551Z,66.30
2018-04-07T05:49:09.520Z,66.40
2018-04-07T05:51:38.975Z,66.30
2018-04-07T05:54:09.109Z,66.20
2018-04-07T05:56:38.345Z,66.20
2018-04-07T05:59:07.542Z,66.00
2018-04-07T06:01:36.746Z,65.80
2018-04-07T06:04:06.134Z,65.60
2018-04-07T06:06:35.249Z,65.40
2018-04-07T06:09:04.416Z,65.30
2018-04-07T06:11:33.399Z,63.30
2018-04-07T06:14:02.381Z,63.10
2018-04-07T06:16:31.547Z,61.90
2018-04-07T06:19:00.868Z,61.80
2018-04-07T06:21:30.375Z,61.30
2018-04-07T06:24:00.400Z,59.60
2018-04-07T06:26:30.172Z,59.40
2018-04-07T06:29:00.106Z,59.30
2018-04-07T06:31:30.036Z,58.40
2018-04-07T06:34:01.163Z,57.00
2018-04-07T06:36:30.951Z,56.00
2018-04-07T06:38:59.985Z,56.00
2018-04-07T06:41:29.132Z,54.80
2018-04-07T06:43:58.264Z,53.10
2018-04-07T06:46:28.449Z,49.40
2018-04-07T06:48:58.194Z,49.30
2018-04-07T06:51:27.966Z,52.70
2018-04-07T06:53:57.206Z,52.70
2018-04-07T06:56:27.316Z,55.00
2018-04-07T06:58:57.124Z,55.00
2018-04-07T07:01:27.464Z,54.80
2018-04-07T07:03:57.178Z,55.50
2018-04-07T07:06:27.294Z,56.10
2018-04-07T07:08:57.139Z,56.70
2018-04-07T07:11:26.391Z,56.10
2018-04-07T07:13:55.592Z,55.70
2018-04-07T07:16:28.145Z,55.80
2018-04-07T07:18:57.458Z,55.80
2018-04-07T07:21:27.656Z,55.10
2018-04-07T07:24:04.988Z,55.00
2018-04-07T07:26:35.450Z,55.00
2018-04-07T07:29:06.188Z,54.90
2018-04-07T07:31:35.605Z,54.70
2018-04-07T07:34:04.949Z,54.30
2018-04-07T07:36:36.090Z,53.80
2018-04-07T07:39:07.095Z,53.80
2018-04-07T07:41:38.142Z,53.70
2018-04-07T07:44:07.162Z,53.10
2018-04-07T07:46:37.338Z,52.70
2018-04-07T07:49:06.784Z,52.50
2018-04-07T07:51:37.326Z,52.00
2018-04-07T07:54:06.884Z,52.00
2018-04-07T07:56:36.147Z,52.40
2018-04-07T07:59:06.102Z,52.20
2018-04-07T08:01:36.739Z,52.20
2018-04-07T08:04:06.645Z,52.00
2018-04-07T08:06:35.964Z,52.40
2018-04-07T08:09:06.335Z,52.70
2018-04-07T08:11:35.770Z,52.20
2018-04-07T08:14:05.096Z,51.50
2018-04-07T08:16:34.604Z,51.00
2018-04-07T08:19:19.123Z,50.80
2018-04-07T08:21:49.998Z,50.20
2018-04-07T08:24:19.568Z,50.20
2018-04-07T08:26:50.261Z,49.10
2018-04-07T08:29:20.902Z,49.10
2018-04-07T08:31:50.748Z,48.20
2018-04-07T08:34:21.941Z,45.30
2018-04-07T08:36:51.448Z,43.10
2018-04-07T08:39:21.635Z,40.50
2018-04-07T08:41:52.407Z,36.60
2018-04-07T08:44:22.132Z,36.60
2018-04-07T08:46:56.212Z,35.10
2018-04-07T08:49:35.165Z,33.70
2018-04-07T08:52:18.160Z,34.10
2018-04-07T08:54:52.120Z,34.90
2018-04-07T08:57:30.676Z,35.30
2018-04-07T09:00:02.192Z,35.30
2018-04-07T09:02:35.067Z,33.20
2018-04-07T09:05:09.368Z,32.40
2018-04-07T09:07:38.513Z,32.40
2018-04-07T09:10:07.976Z,32.30
2018-04-07T09:12:37.175Z,31.90
2018-04-07T09:15:06.689Z,31.70
2018-04-07T09:17:35.676Z,31.40
2018-04-07T09:20:05.711Z,29.90
2018-04-07T09:22:36.593Z,29.70
2018-04-07T09:25:06.065Z,29.70
2018-04-07T09:27:36.197Z,29.70
2018-04-07T09:30:06.871Z,29.60
2018-04-07T09:32:36.227Z,29.80
2018-04-07T09:35:14.610Z,29.80
2018-04-07T09:37:45.835Z,29.50
2018-04-07T09:40:15.451Z,28.80
2018-04-07T09:42:54.009Z,29.50
2018-04-07T09:45:31.502Z,28.80
2018-04-07T09:48:04.587Z,28.80
2018-04-07T09:50:41.795Z,28.40
2018-04-07T09:53:21.828Z,28.50
2018-04-07T09:55:54.763Z,28.90
2018-04-07T09:58:37.947Z,28.90
2018-04-07T10:01:24.131Z,28.80
2018-04-07T10:03:57.586Z,28.80
2018-04-07T10:06:26.964Z,27.60
2018-04-07T10:09:01.143Z,28.00
2018-04-07T10:11:34.995Z,27.30
2018-04-07T10:14:07.884Z,27.30
2018-04-07T10:16:37.399Z,26.90
2018-04-07T10:19:07.785Z,26.30
2018-04-07T10:21:37.424Z,26.80
2018-04-07T10:24:08.211Z,25.30
2018-04-07T10:26:42.544Z,25.80
2018-04-07T10:29:12.263Z,25.80
2018-04-07T10:31:46.123Z,25.80
2018-04-07T10:34:24.110Z,25.70
2018-04-07T10:36:56.069Z,26.20
2018-04-07T10:39:26.240Z,26.70
2018-04-07T10:41:58.529Z,25.90
2018-04-07T10:44:34.962Z,25.50
2018-04-07T10:47:04.962Z,25.50
2018-04-07T10:49:34.271Z,24.70
2018-04-07T10:52:03.788Z,24.90
2018-04-07T10:54:33.099Z,24.70
2018-04-07T10:57:04.213Z,24.30
2018-04-07T10:59:34.213Z,24.30
2018-04-07T11:02:03.615Z,24.50
2018-04-07T11:04:33.067Z,24.50
2018-04-07T11:07:03.259Z,23.70
2018-04-07T11:09:33.280Z,23.70
2018-04-07T11:12:02.583Z,23.30
2018-04-07T11:14:32.103Z,22.50
2018-04-07T11:17:01.629Z,22.50
2018-04-07T11:19:31.340Z,23.20
2018-04-07T11:22:00.663Z,23.30
2018-04-07T11:24:32.345Z,23.40
2018-04-07T11:27:02.352Z,24.10
2018-04-07T11:29:33.452Z,24.70
2018-04-07T11:32:06.995Z,24.80
2018-04-07T11:34:36.936Z,24.60
2018-04-07T11:37:06.451Z,24.90
2018-04-07T11:39:36.700Z,24.50
2018-04-07T11:42:06.864Z,24.20
2018-04-07T11:44:35.945Z,24.40
2018-04-07T11:47:05.220Z,23.70
2018-04-07T11:49:40.847Z,24.10
2018-04-07T11:52:21.716Z,23.80
2018-04-07T11:55:02.171Z,23.70
2018-04-07T11:57:32.350Z,23.80
2018-04-07T12:00:02.673Z,23.90
2018-04-07T12:02:32.171Z,23.00
2018-04-07T12:05:03.166Z,22.40
2018-04-07T12:07:32.346Z,21.50
2018-04-07T12:10:01.924Z,22.30
2018-04-07T12:12:31.121Z,23.00
2018-04-07T12:15:01.593Z,22.60
2018-04-07T12:17:32.068Z,21.10
2018-04-07T12:20:01.949Z,21.10
2018-04-07T12:22:31.108Z,22.40
2018-04-07T12:25:00.294Z,22.30
2018-04-07T12:27:30.392Z,24.60
2018-04-07T12:30:00.249Z,24.60
2018-04-07T12:32:29.854Z,24.10
2018-04-07T12:34:59.257Z,24.00
2018-04-07T12:37:29.060Z,23.80
2018-04-07T12:39:59.696Z,22.80
2018-04-07T12:42:40.370Z,21.50
2018-04-07T12:45:18.708Z,21.30
2018-04-07T12:47:53.294Z,21.90
2018-04-07T12:50:24.056Z,23.00
2018-04-07T12:52:53.503Z,23.10
2018-04-07T12:55:23.277Z,23.70
2018-04-07T12:57:53.848Z,24.30
2018-04-07T13:00:24.556Z,24.40
2018-04-07T13:02:54.301Z,23.90
2018-04-07T13:05:24.586Z,23.50
2018-04-07T13:07:53.739Z,23.80
2018-04-07T13:10:23.328Z,23.30
2018-04-07T13:13:05.915Z,23.30
2018-04-07T13:15:37.782Z,23.30
2018-04-07T13:18:08.068Z,24.10
2018-04-07T13:20:52.733Z,24.00
2018-04-07T13:23:25.060Z,23.60
2018-04-07T13:26:00.847Z,23.60
2018-04-07T13:28:38.999Z,24.40
2018-04-07T13:31:08.439Z,24.30
2018-04-07T13:33:38.720Z,23.90
2018-04-07T13:36:07.777Z,24.10
2018-04-07T13:38:41.175Z,23.80
2018-04-07T13:41:11.591Z,24.70
2018-04-07T13:43:42.882Z,24.70
2018-04-07T13:46:12.435Z,24.20
2018-04-07T13:48:42.224Z,24.20
2018-04-07T13:51:12.057Z,24.70
2018-04-07T13:53:41.416Z,24.90
2018-04-07T13:56:12.416Z,24.60
2018-04-07T13:58:42.216Z,23.60
2018-04-07T14:01:16.137Z,23.80
2018-04-07T14:03:48.620Z,23.80
2018-04-07T14:06:23.499Z,23.80
2018-04-07T14:08:54.675Z,25.10
2018-04-07T14:11:26.822Z,26.80
2018-04-07T14:14:00.016Z,27.50
2018-04-07T14:16:39.331Z,27.90
2018-04-07T14:19:11.276Z,28.30
2018-04-07T14:21:54.067Z,28.20
2018-04-07T14:24:32.780Z,28.50
2018-04-07T14:27:05.928Z,28.70
2018-04-07T14:29:47.022Z,28.80
2018-04-07T14:32:23.681Z,28.70
2018-04-07T14:35:07.836Z,28.70
2018-04-07T14:37:51.804Z,28.90
2018-04-07T14:40:30.875Z,28.70
2018-04-07T14:43:12.610Z,28.60
2018-04-07T14:45:50.507Z,28.30
2018-04-07T14:48:27.068Z,28.30
2018-04-07T14:51:06.172Z,28.60
2018-04-07T14:53:43.273Z,28.80
2018-04-07T14:56:13.072Z,29.00
2018-04-07T14:58:44.025Z,28.90
2018-04-07T15:01:23.951Z,28.50
2018-04-07T15:04:01.935Z,28.50
2018-04-07T15:06:41.703Z,28.60
2018-04-07T15:09:12.898Z,28.50
2018-04-07T15:11:43.688Z,28.60
2018-04-07T15:14:16.164Z,28.40
2018-04-07T15:16:58.448Z,28.20
2018-04-07T15:19:29.839Z,28.20
2018-04-07T15:22:11.874Z,28.40
2018-04-07T15:24:42.293Z,28.60
2018-04-07T15:27:28.399Z,28.60
2018-04-07T15:30:16.532Z,28.70
2018-04-07T15:33:04.035Z,28.60
2018-04-07T15:35:41.253Z,28.70
2018-04-07T15:38:12.506Z,29.00
2018-04-07T15:40:48.212Z,29.00
2018-04-07T15:43:27.040Z,29.00
2018-04-07T15:45:59.080Z,28.80
2018-04-07T15:48:29.331Z,29.00
2018-04-07T15:51:05.348Z,29.50
2018-04-07T15:53:36.565Z,29.40
2018-04-07T15:56:07.408Z,29.50
2018-04-07T15:58:37.653Z,29.40
2018-04-07T16:01:08.154Z,29.60
2018-04-07T16:03:38.971Z,29.80
2018-04-07T16:06:14.122Z,30.00
2018-04-07T16:08:44.048Z,30.00
2018-04-07T16:11:23.908Z,29.90
2018-04-07T16:13:58.087Z,30.10
2018-04-07T16:16:33.571Z,30.10
2018-04-07T16:19:02.808Z,30.10
2018-04-07T16:21:46.085Z,30.30
2018-04-07T16:24:23.705Z,30.30
2018-04-07T16:26:53.538Z,30.10
2018-04-07T16:29:32.457Z,30.30
2018-04-07T16:32:08.076Z,30.20
2018-04-07T16:34:38.254Z,30.00
2018-04-07T16:37:07.727Z,30.10
2018-04-07T16:39:37.987Z,30.20
2018-04-07T16:42:33.593Z,30.20
2018-04-07T16:45:13.549Z,30.20
2018-04-07T16:47:43.492Z,30.30
2018-04-07T16:50:18.912Z,30.50
2018-04-07T16:52:48.386Z,30.60
2018-04-07T16:55:30.852Z,30.60
2018-04-07T16:58:02.392Z,31.00
2018-04-07T17:00:32.748Z,30.90
2018-04-07T17:03:02.344Z,30.80
2018-04-07T17:05:32.348Z,31.10
2018-04-07T17:08:03.487Z,31.50
2018-04-07T17:10:43.472Z,31.70
2018-04-07T17:13:13.991Z,31.60
2018-04-07T17:15:44.431Z,31.60
2018-04-07T17:18:27.735Z,31.60
2018-04-07T17:20:58.460Z,31.80
2018-04-07T17:23:41.609Z,32.00
2018-04-07T17:26:22.803Z,32.00
2018-04-07T17:29:04.537Z,32.20
2018-04-07T17:31:43.026Z,33.10
2018-04-07T17:34:17.836Z,32.60
2018-04-07T17:36:48.471Z,32.60
2018-04-07T17:42:08.893Z,32.90
2018-04-07T17:44:39.163Z,33.00
2018-04-07T17:47:14.040Z,33.30
2018-04-07T17:49:45.751Z,33.60
2018-04-07T17:52:19.569Z,33.60
2018-04-07T17:54:57.572Z,33.60
2018-04-07T17:57:39.461Z,33.80
2018-04-07T18:00:13.389Z,34.40
2018-04-07T18:02:49.992Z,34.80
2018-04-07T18:05:31.837Z,34.80
2018-04-07T18:08:01.957Z,34.50
2018-04-07T18:10:32.238Z,34.30
2018-04-07T18:13:08.959Z,34.30
2018-04-07T18:15:38.969Z,34.30
2018-04-07T18:18:09.640Z,34.70
2018-04-07T18:20:39.288Z,34.70
2018-04-07T18:23:09.203Z,34.90
2018-04-07T18:25:39.680Z,35.70
2018-04-07T18:28:10.168Z,35.70
2018-04-07T18:30:40.738Z,36.00
2018-04-07T18:33:20.448Z,36.10
2018-04-07T18:36:03.116Z,35.60
2018-04-07T18:38:41.838Z,36.20
2018-04-07T18:41:30.117Z,36.10
2018-04-07T18:44:09.769Z,36.20
2018-04-07T18:46:39.950Z,36.50
2018-04-07T18:49:09.972Z,36.60
2018-04-07T18:51:40.311Z,37.00
2018-04-07T18:54:10.231Z,37.50
2018-04-07T18:56:39.599Z,37.30
2018-04-07T18:59:19.727Z,38.10
2018-04-07T19:01:49.600Z,37.60
2018-04-07T19:04:19.581Z,38.10
2018-04-07T19:06:51.252Z,38.00
2018-04-07T19:09:20.959Z,38.40
2018-04-07T19:11:52.764Z,38.50
2018-04-07T19:14:27.204Z,38.70
2018-04-07T19:17:08.809Z,39.20
2018-04-07T19:19:41.552Z,39.30
2018-04-07T19:22:12.603Z,39.10
2018-04-07T19:24:49.896Z,39.30
2018-04-07T19:27:21.123Z,39.30
2018-04-07T19:29:51.879Z,39.20
2018-04-07T19:32:26.059Z,39.40
2018-04-07T19:34:57.679Z,39.30
2018-04-07T19:37:36.302Z,39.50
2018-04-07T19:40:08.789Z,40.60
2018-04-07T19:42:38.598Z,40.40
2018-04-07T19:45:15.193Z,40.60
2018-04-07T19:47:57.764Z,40.60
2018-04-07T19:50:40.015Z,40.80
2018-04-07T19:53:14.934Z,41.30
2018-04-07T19:56:00.580Z,41.20
2018-04-07T19:58:31.844Z,41.20
2018-04-07T20:01:01.504Z,41.30
2018-04-07T20:03:45.770Z,41.40
2018-04-07T20:06:21.161Z,41.60
2018-04-07T20:08:56.666Z,41.70
2018-04-07T20:11:38.680Z,42.20
2018-04-07T20:14:18.034Z,42.40
2018-04-07T20:16:54.034Z,43.00
2018-04-07T20:19:34.944Z,42.60
2018-04-07T20:22:20.994Z,43.30
2018-04-07T20:25:07.723Z,43.30
2018-04-07T20:27:51.239Z,43.90
2018-04-07T20:30:26.884Z,43.90
2018-04-07T20:33:01.288Z,43.70
2018-04-07T20:35:46.603Z,43.40
2018-04-07T20:38:16.908Z,44.20
2018-04-07T20:41:04.591Z,43.80
2018-04-07T20:43:50.001Z,43.70
2018-04-07T20:46:29.808Z,43.70
2018-04-07T20:49:05.042Z,44.20
2018-04-07T20:51:42.004Z,45.00
2018-04-07T20:54:25.502Z,44.90
2018-04-07T20:57:09.625Z,44.90
2018-04-07T20:59:58.065Z,44.90
2018-04-07T21:02:41.223Z,44.90
2018-04-07T21:05:46.407Z,45.10
2018-04-07T21:08:19.765Z,45.20
2018-04-07T21:10:59.071Z,45.80
2018-04-07T21:13:36.684Z,45.70
2018-04-07T21:19:28.850Z,46.20
2018-04-07T21:22:25.926Z,45.70
2018-04-07T21:25:16.243Z,46.30
2018-04-07T21:27:47.454Z,45.80
2018-04-07T21:30:31.221Z,45.80
2018-04-07T21:33:11.204Z,46.40
2018-04-07T21:36:11.228Z,47.70
2018-04-07T21:42:20.005Z,48.30
2018-04-07T21:45:04.712Z,49.40
2018-04-07T21:47:40.463Z,50.00
2018-04-07T21:50:14.936Z,49.90
2018-04-07T21:53:09.386Z,50.30
2018-04-07T21:55:42.746Z,50.90
2018-04-07T21:58:29.085Z,51.70
2018-04-07T22:01:10.568Z,51.60
2018-04-07T22:03:41.587Z,51.80
2018-04-07T22:06:14.187Z,52.20
2018-04-07T22:08:52.264Z,53.20
2018-04-07T22:11:40.040Z,53.20
2018-04-07T22:14:12.951Z,53.20
2018-04-07T22:16:42.759Z,53.50
2018-04-07T22:19:15.337Z,53.80
2018-04-07T22:21:54.393Z,54.00
2018-04-07T22:24:39.595Z,54.60
2018-04-07T22:27:14.285Z,54.90
2018-04-07T22:30:09.202Z,55.00
2018-04-07T22:32:40.331Z,54.90
2018-04-07T22:35:28.959Z,55.00
2018-04-07T22:37:59.720Z,55.30
2018-04-07T22:40:30.544Z,55.20
2018-04-07T22:43:02.053Z,55.00
2018-04-07T22:45:36.428Z,54.80
2018-04-07T22:48:07.582Z,55.70
2018-04-07T22:50:37.135Z,55.70
2018-04-07T22:53:08.074Z,54.20
2018-04-07T22:55:41.180Z,54.40
2018-04-07T22:58:24.346Z,54.30
2018-04-07T23:00:58.859Z,54.20
2018-04-07T23:03:31.653Z,54.10
2018-04-07T23:06:01.431Z,54.00
2018-04-07T23:08:43.182Z,54.20
2018-04-07T23:11:13.316Z,53.50
2018-04-07T23:13:43.988Z,54.10
2018-04-07T23:16:27.130Z,54.10
2018-04-07T23:19:06.547Z,54.00
2018-04-07T23:21:36.998Z,54.10
2018-04-07T23:24:13.503Z,54.80
2018-04-07T23:26:52.620Z,54.90
2018-04-07T23:29:22.443Z,55.00
2018-04-07T23:32:04.950Z,55.30
2018-04-07T23:34:34.455Z,55.30
2018-04-07T23:37:04.687Z,55.70
2018-04-07T23:39:34.175Z,55.50
2018-04-07T23:42:07.945Z,55.80
2018-04-07T23:44:38.248Z,56.20
2018-04-07T23:47:10.894Z,56.50
2018-04-07T23:49:42.196Z,56.60
2018-04-07T23:52:12.404Z,56.60
2018-04-07T23:54:44.150Z,56.80
2018-04-07T23:57:26.064Z,56.60
